sensor_id;sensor_type;location;lat;lon;timestamp;P1;durP1;ratioP1;P2;durP2;ratioP2
9160;SDS011;4615;51.340;8.288;2023-07-31T00:00:06;3.60;;;3.03;;
9160;SDS011;4615;51.340;8.288;2023-07-31T00:02:33;3.58;;;2.80;;
9160;SDS011;4615;51.340;8.288;2023-07-31T00:05:00;3.92;;;2.90;;
9160;SDS011;4615;51.340;8.288;2023-07-31T00:07:27;3.72;;;2.97;;
9160;SDS011;4615;51.340;8.288;2023-07-31T00:09:54;3.40;;;2.90;;
9160;SDS011;4615;51.340;8.288;2023-07-31T00:12:21;4.90;;;3.03;;
9160;SDS011;4615;51.340;8.288;2023-07-31T00:14:48;3.50;;;3.20;;
9160;SDS011;4615;51.340;8.288;2023-07-31T00:17:14;3.40;;;3.10;;
9160;SDS011;4615;51.340;8.288;2023-07-31T00:19:41;3.50;;;3.20;;
9160;SDS011;4615;51.340;8.288;2023-07-31T00:22:07;4.32;;;2.80;;
9160;SDS011;4615;51.340;8.288;2023-07-31T00:24:34;3.63;;;3.07;;
9160;SDS011;4615;51.340;8.288;2023-07-31T00:27:01;4.05;;;2.90;;
9160;SDS011;4615;51.340;8.288;2023-07-31T00:29:28;3.13;;;2.83;;
9160;SDS011;4615;51.340;8.288;2023-07-31T00:31:54;3.45;;;2.90;;
9160;SDS011;4615;51.340;8.288;2023-07-31T00:34:20;3.47;;;2.80;;
9160;SDS011;4615;51.340;8.288;2023-07-31T00:36:47;3.65;;;3.15;;
9160;SDS011;4615;51.340;8.288;2023-07-31T00:39:13;3.87;;;2.87;;
9160;SDS011;4615;51.340;8.288;2023-07-31T00:41:40;3.72;;;2.70;;
9160;SDS011;4615;51.340;8.288;2023-07-31T00:44:07;3.10;;;2.80;;
9160;SDS011;4615;51.340;8.288;2023-07-31T00:46:34;3.37;;;2.80;;
9160;SDS011;4615;51.340;8.288;2023-07-31T00:49:00;3.40;;;2.67;;
9160;SDS011;4615;51.340;8.288;2023-07-31T00:51:27;3.63;;;2.90;;
9160;SDS011;4615;51.340;8.288;2023-07-31T00:53:54;4.10;;;2.83;;
9160;SDS011;4615;51.340;8.288;2023-07-31T00:56:21;3.45;;;2.72;;
9160;SDS011;4615;51.340;8.288;2023-07-31T00:58:47;3.45;;;2.80;;
9160;SDS011;4615;51.340;8.288;2023-07-31T01:01:15;3.95;;;2.90;;
9160;SDS011;4615;51.340;8.288;2023-07-31T01:03:41;3.47;;;2.83;;
9160;SDS011;4615;51.340;8.288;2023-07-31T01:06:11;3.95;;;2.63;;
9160;SDS011;4615;51.340;8.288;2023-07-31T01:08:40;3.10;;;2.80;;
9160;SDS011;4615;51.340;8.288;2023-07-31T01:11:11;3.72;;;2.90;;
9160;SDS011;4615;51.340;8.288;2023-07-31T01:13:41;3.88;;;2.80;;
9160;SDS011;4615;51.340;8.288;2023-07-31T01:16:08;4.88;;;2.72;;
9160;SDS011;4615;51.340;8.288;2023-07-31T01:18:36;3.60;;;2.93;;
9160;SDS011;4615;51.340;8.288;2023-07-31T01:21:03;3.25;;;2.95;;
9160;SDS011;4615;51.340;8.288;2023-07-31T01:23:35;3.55;;;3.08;;
9160;SDS011;4615;51.340;8.288;2023-07-31T01:26:11;4.47;;;3.15;;
9160;SDS011;4615;51.340;8.288;2023-07-31T01:28:40;3.55;;;3.22;;
9160;SDS011;4615;51.340;8.288;2023-07-31T01:31:09;4.30;;;3.30;;
9160;SDS011;4615;51.340;8.288;2023-07-31T01:33:37;4.97;;;3.20;;
9160;SDS011;4615;51.340;8.288;2023-07-31T01:36:04;4.05;;;3.13;;
9160;SDS011;4615;51.340;8.288;2023-07-31T01:38:30;3.42;;;3.13;;
9160;SDS011;4615;51.340;8.288;2023-07-31T01:40:57;6.43;;;3.50;;
9160;SDS011;4615;51.340;8.288;2023-07-31T01:43:24;5.80;;;3.78;;
9160;SDS011;4615;51.340;8.288;2023-07-31T01:45:51;5.88;;;3.67;;
9160;SDS011;4615;51.340;8.288;2023-07-31T01:48:17;5.32;;;3.60;;
9160;SDS011;4615;51.340;8.288;2023-07-31T01:50:43;5.43;;;3.58;;
9160;SDS011;4615;51.340;8.288;2023-07-31T01:53:10;4.40;;;4.00;;
9160;SDS011;4615;51.340;8.288;2023-07-31T01:55:37;5.38;;;3.80;;
9160;SDS011;4615;51.340;8.288;2023-07-31T01:58:03;4.90;;;4.10;;
9160;SDS011;4615;51.340;8.288;2023-07-31T02:00:31;7.05;;;4.25;;
9160;SDS011;4615;51.340;8.288;2023-07-31T02:02:56;5.40;;;3.90;;
9160;SDS011;4615;51.340;8.288;2023-07-31T02:05:23;5.43;;;4.70;;
9160;SDS011;4615;51.340;8.288;2023-07-31T02:07:49;5.88;;;4.32;;
9160;SDS011;4615;51.340;8.288;2023-07-31T02:10:15;6.60;;;4.50;;
9160;SDS011;4615;51.340;8.288;2023-07-31T02:12:42;5.78;;;4.32;;
9160;SDS011;4615;51.340;8.288;2023-07-31T02:15:08;6.88;;;4.75;;
9160;SDS011;4615;51.340;8.288;2023-07-31T02:17:36;6.80;;;4.75;;
9160;SDS011;4615;51.340;8.288;2023-07-31T02:20:03;7.43;;;4.65;;
9160;SDS011;4615;51.340;8.288;2023-07-31T02:22:29;7.95;;;4.80;;
9160;SDS011;4615;51.340;8.288;2023-07-31T02:24:56;6.88;;;4.55;;
9160;SDS011;4615;51.340;8.288;2023-07-31T02:27:22;6.32;;;4.63;;
9160;SDS011;4615;51.340;8.288;2023-07-31T02:29:52;7.25;;;4.45;;
9160;SDS011;4615;51.340;8.288;2023-07-31T02:32:18;6.40;;;4.63;;
9160;SDS011;4615;51.340;8.288;2023-07-31T02:34:46;5.83;;;3.93;;
9160;SDS011;4615;51.340;8.288;2023-07-31T02:37:12;5.47;;;4.05;;
9160;SDS011;4615;51.340;8.288;2023-07-31T02:39:39;5.93;;;4.13;;
9160;SDS011;4615;51.340;8.288;2023-07-31T02:42:05;5.88;;;4.10;;
9160;SDS011;4615;51.340;8.288;2023-07-31T02:44:31;5.18;;;3.70;;
9160;SDS011;4615;51.340;8.288;2023-07-31T02:46:58;5.38;;;4.07;;
9160;SDS011;4615;51.340;8.288;2023-07-31T02:49:24;6.80;;;4.10;;
9160;SDS011;4615;51.340;8.288;2023-07-31T02:51:52;5.68;;;3.58;;
9160;SDS011;4615;51.340;8.288;2023-07-31T02:54:18;5.00;;;3.63;;
9160;SDS011;4615;51.340;8.288;2023-07-31T02:56:46;4.95;;;3.80;;
9160;SDS011;4615;51.340;8.288;2023-07-31T02:59:12;5.80;;;3.65;;
9160;SDS011;4615;51.340;8.288;2023-07-31T03:01:39;4.60;;;3.05;;
9160;SDS011;4615;51.340;8.288;2023-07-31T03:04:05;5.10;;;3.55;;
9160;SDS011;4615;51.340;8.288;2023-07-31T03:06:32;5.60;;;3.58;;
9160;SDS011;4615;51.340;8.288;2023-07-31T03:08:59;5.03;;;3.40;;
9160;SDS011;4615;51.340;8.288;2023-07-31T03:11:26;5.30;;;3.47;;
9160;SDS011;4615;51.340;8.288;2023-07-31T03:13:52;5.57;;;3.60;;
9160;SDS011;4615;51.340;8.288;2023-07-31T03:16:19;4.75;;;3.58;;
9160;SDS011;4615;51.340;8.288;2023-07-31T03:18:45;4.75;;;3.20;;
9160;SDS011;4615;51.340;8.288;2023-07-31T03:21:20;5.80;;;3.40;;
9160;SDS011;4615;51.340;8.288;2023-07-31T03:23:47;5.17;;;3.47;;
9160;SDS011;4615;51.340;8.288;2023-07-31T03:26:14;6.43;;;3.50;;
9160;SDS011;4615;51.340;8.288;2023-07-31T03:28:41;4.63;;;3.55;;
9160;SDS011;4615;51.340;8.288;2023-07-31T03:31:07;6.57;;;3.70;;
9160;SDS011;4615;51.340;8.288;2023-07-31T03:33:34;6.20;;;3.60;;
9160;SDS011;4615;51.340;8.288;2023-07-31T03:36:00;7.63;;;4.00;;
9160;SDS011;4615;51.340;8.288;2023-07-31T03:38:27;4.70;;;3.58;;
9160;SDS011;4615;51.340;8.288;2023-07-31T03:40:53;4.33;;;3.57;;
9160;SDS011;4615;51.340;8.288;2023-07-31T03:43:21;5.68;;;3.50;;
9160;SDS011;4615;51.340;8.288;2023-07-31T03:45:47;6.72;;;3.60;;
9160;SDS011;4615;51.340;8.288;2023-07-31T03:48:13;4.93;;;3.60;;
9160;SDS011;4615;51.340;8.288;2023-07-31T03:50:40;5.75;;;3.90;;
9160;SDS011;4615;51.340;8.288;2023-07-31T03:53:06;6.53;;;3.70;;
9160;SDS011;4615;51.340;8.288;2023-07-31T03:55:33;6.50;;;3.53;;
9160;SDS011;4615;51.340;8.288;2023-07-31T03:57:59;7.05;;;3.50;;
9160;SDS011;4615;51.340;8.288;2023-07-31T04:00:27;5.40;;;3.63;;
9160;SDS011;4615;51.340;8.288;2023-07-31T04:02:54;6.07;;;3.60;;
9160;SDS011;4615;51.340;8.288;2023-07-31T04:05:20;6.78;;;3.80;;
9160;SDS011;4615;51.340;8.288;2023-07-31T04:07:46;5.22;;;3.72;;
9160;SDS011;4615;51.340;8.288;2023-07-31T04:10:13;5.43;;;3.47;;
9160;SDS011;4615;51.340;8.288;2023-07-31T04:12:39;8.00;;;3.75;;
9160;SDS011;4615;51.340;8.288;2023-07-31T04:15:06;6.07;;;3.65;;
9160;SDS011;4615;51.340;8.288;2023-07-31T04:17:33;6.07;;;3.65;;
9160;SDS011;4615;51.340;8.288;2023-07-31T04:20:00;5.82;;;3.70;;
9160;SDS011;4615;51.340;8.288;2023-07-31T04:22:27;7.05;;;3.85;;
9160;SDS011;4615;51.340;8.288;2023-07-31T04:24:53;7.80;;;3.67;;
9160;SDS011;4615;51.340;8.288;2023-07-31T04:27:20;5.47;;;3.65;;
9160;SDS011;4615;51.340;8.288;2023-07-31T04:29:46;6.82;;;3.83;;
9160;SDS011;4615;51.340;8.288;2023-07-31T04:32:12;8.35;;;3.70;;
9160;SDS011;4615;51.340;8.288;2023-07-31T04:34:42;6.78;;;3.85;;
9160;SDS011;4615;51.340;8.288;2023-07-31T04:37:08;6.75;;;3.78;;
9160;SDS011;4615;51.340;8.288;2023-07-31T04:39:34;5.97;;;3.42;;
9160;SDS011;4615;51.340;8.288;2023-07-31T04:42:01;6.28;;;3.53;;
9160;SDS011;4615;51.340;8.288;2023-07-31T04:44:27;5.53;;;3.70;;
9160;SDS011;4615;51.340;8.288;2023-07-31T04:46:54;5.88;;;3.65;;
9160;SDS011;4615;51.340;8.288;2023-07-31T04:49:20;6.10;;;4.00;;
9160;SDS011;4615;51.340;8.288;2023-07-31T04:51:48;6.15;;;3.28;;
9160;SDS011;4615;51.340;8.288;2023-07-31T04:54:14;7.47;;;3.90;;
9160;SDS011;4615;51.340;8.288;2023-07-31T04:56:41;6.55;;;3.83;;
9160;SDS011;4615;51.340;8.288;2023-07-31T04:59:07;6.10;;;4.10;;
9160;SDS011;4615;51.340;8.288;2023-07-31T05:01:34;5.90;;;4.07;;
9160;SDS011;4615;51.340;8.288;2023-07-31T05:04:00;6.38;;;3.65;;
9160;SDS011;4615;51.340;8.288;2023-07-31T05:06:27;7.00;;;4.10;;
9160;SDS011;4615;51.340;8.288;2023-07-31T05:08:55;6.20;;;3.88;;
9160;SDS011;4615;51.340;8.288;2023-07-31T05:11:21;6.63;;;3.92;;
9160;SDS011;4615;51.340;8.288;2023-07-31T05:13:47;6.68;;;3.92;;
9160;SDS011;4615;51.340;8.288;2023-07-31T05:16:14;7.68;;;3.90;;
9160;SDS011;4615;51.340;8.288;2023-07-31T05:18:40;7.93;;;4.05;;
9160;SDS011;4615;51.340;8.288;2023-07-31T05:21:06;5.97;;;3.72;;
9160;SDS011;4615;51.340;8.288;2023-07-31T05:23:33;6.10;;;3.75;;
9160;SDS011;4615;51.340;8.288;2023-07-31T05:26:03;5.07;;;3.60;;
9160;SDS011;4615;51.340;8.288;2023-07-31T05:28:30;5.95;;;3.78;;
9160;SDS011;4615;51.340;8.288;2023-07-31T05:30:58;4.68;;;3.38;;
9160;SDS011;4615;51.340;8.288;2023-07-31T05:33:24;5.93;;;3.28;;
9160;SDS011;4615;51.340;8.288;2023-07-31T05:35:51;4.57;;;3.40;;
9160;SDS011;4615;51.340;8.288;2023-07-31T05:38:17;5.32;;;3.40;;
9160;SDS011;4615;51.340;8.288;2023-07-31T05:40:43;4.75;;;3.20;;
9160;SDS011;4615;51.340;8.288;2023-07-31T05:43:11;4.97;;;3.45;;
9160;SDS011;4615;51.340;8.288;2023-07-31T05:45:37;5.07;;;3.38;;
9160;SDS011;4615;51.340;8.288;2023-07-31T05:48:05;4.93;;;3.47;;
9160;SDS011;4615;51.340;8.288;2023-07-31T05:50:31;5.38;;;3.20;;
9160;SDS011;4615;51.340;8.288;2023-07-31T05:52:58;5.05;;;3.63;;
9160;SDS011;4615;51.340;8.288;2023-07-31T05:55:24;5.40;;;3.60;;
9160;SDS011;4615;51.340;8.288;2023-07-31T05:57:51;4.78;;;3.38;;
9160;SDS011;4615;51.340;8.288;2023-07-31T06:00:19;4.55;;;3.50;;
9160;SDS011;4615;51.340;8.288;2023-07-31T06:02:47;4.70;;;3.45;;
9160;SDS011;4615;51.340;8.288;2023-07-31T06:05:13;4.45;;;3.38;;
9160;SDS011;4615;51.340;8.288;2023-07-31T06:07:40;5.85;;;3.90;;
9160;SDS011;4615;51.340;8.288;2023-07-31T06:10:07;5.85;;;3.45;;
9160;SDS011;4615;51.340;8.288;2023-07-31T06:12:33;5.63;;;4.13;;
9160;SDS011;4615;51.340;8.288;2023-07-31T06:15:00;5.22;;;4.13;;
9160;SDS011;4615;51.340;8.288;2023-07-31T06:17:28;5.22;;;3.85;;
9160;SDS011;4615;51.340;8.288;2023-07-31T06:19:54;5.88;;;3.60;;
9160;SDS011;4615;51.340;8.288;2023-07-31T06:22:21;6.07;;;4.20;;
9160;SDS011;4615;51.340;8.288;2023-07-31T06:24:47;5.22;;;4.30;;
9160;SDS011;4615;51.340;8.288;2023-07-31T06:27:14;5.68;;;4.03;;
9160;SDS011;4615;51.340;8.288;2023-07-31T06:29:40;6.75;;;4.28;;
9160;SDS011;4615;51.340;8.288;2023-07-31T06:32:07;4.85;;;4.13;;
9160;SDS011;4615;51.340;8.288;2023-07-31T06:34:35;5.15;;;4.13;;
9160;SDS011;4615;51.340;8.288;2023-07-31T06:37:01;4.55;;;3.83;;
9160;SDS011;4615;51.340;8.288;2023-07-31T06:39:28;5.13;;;4.10;;
9160;SDS011;4615;51.340;8.288;2023-07-31T06:41:54;5.03;;;3.80;;
9160;SDS011;4615;51.340;8.288;2023-07-31T06:44:20;4.80;;;4.30;;
9160;SDS011;4615;51.340;8.288;2023-07-31T06:46:47;5.35;;;4.25;;
9160;SDS011;4615;51.340;8.288;2023-07-31T06:49:13;5.83;;;4.07;;
9160;SDS011;4615;51.340;8.288;2023-07-31T06:51:41;5.55;;;4.20;;
9160;SDS011;4615;51.340;8.288;2023-07-31T06:54:09;5.40;;;4.47;;
9160;SDS011;4615;51.340;8.288;2023-07-31T06:56:36;6.90;;;4.35;;
9160;SDS011;4615;51.340;8.288;2023-07-31T06:59:03;6.13;;;4.70;;
9160;SDS011;4615;51.340;8.288;2023-07-31T07:01:29;6.93;;;4.70;;
9160;SDS011;4615;51.340;8.288;2023-07-31T07:03:55;5.43;;;4.60;;
9160;SDS011;4615;51.340;8.288;2023-07-31T07:06:22;6.93;;;4.72;;
9160;SDS011;4615;51.340;8.288;2023-07-31T07:08:50;6.28;;;4.75;;
9160;SDS011;4615;51.340;8.288;2023-07-31T07:11:16;6.87;;;4.77;;
9160;SDS011;4615;51.340;8.288;2023-07-31T07:13:43;6.03;;;4.53;;
9160;SDS011;4615;51.340;8.288;2023-07-31T07:16:09;7.57;;;4.87;;
9160;SDS011;4615;51.340;8.288;2023-07-31T07:18:37;7.40;;;4.80;;
9160;SDS011;4615;51.340;8.288;2023-07-31T07:21:03;5.50;;;4.60;;
9160;SDS011;4615;51.340;8.288;2023-07-31T07:23:29;8.73;;;4.50;;
9160;SDS011;4615;51.340;8.288;2023-07-31T07:25:57;6.50;;;4.30;;
9160;SDS011;4615;51.340;8.288;2023-07-31T07:28:23;6.07;;;4.30;;
9160;SDS011;4615;51.340;8.288;2023-07-31T07:30:50;5.93;;;3.95;;
9160;SDS011;4615;51.340;8.288;2023-07-31T07:33:17;6.22;;;4.43;;
9160;SDS011;4615;51.340;8.288;2023-07-31T07:35:43;7.60;;;4.60;;
9160;SDS011;4615;51.340;8.288;2023-07-31T07:38:10;6.40;;;4.22;;
9160;SDS011;4615;51.340;8.288;2023-07-31T07:40:38;6.30;;;4.30;;
9160;SDS011;4615;51.340;8.288;2023-07-31T07:43:06;4.90;;;3.97;;
9160;SDS011;4615;51.340;8.288;2023-07-31T07:45:32;4.80;;;3.80;;
9160;SDS011;4615;51.340;8.288;2023-07-31T07:47:58;6.07;;;4.22;;
9160;SDS011;4615;51.340;8.288;2023-07-31T07:50:25;5.50;;;4.03;;
9160;SDS011;4615;51.340;8.288;2023-07-31T07:52:51;5.50;;;4.05;;
9160;SDS011;4615;51.340;8.288;2023-07-31T07:55:17;5.05;;;3.75;;
9160;SDS011;4615;51.340;8.288;2023-07-31T07:57:44;6.40;;;3.90;;
9160;SDS011;4615;51.340;8.288;2023-07-31T08:00:12;4.10;;;3.45;;
9160;SDS011;4615;51.340;8.288;2023-07-31T08:02:38;4.83;;;3.70;;
9160;SDS011;4615;51.340;8.288;2023-07-31T08:05:05;5.30;;;3.97;;
9160;SDS011;4615;51.340;8.288;2023-07-31T08:07:31;5.23;;;4.00;;
9160;SDS011;4615;51.340;8.288;2023-07-31T08:09:58;4.45;;;3.65;;
9160;SDS011;4615;51.340;8.288;2023-07-31T08:12:24;5.55;;;3.95;;
9160;SDS011;4615;51.340;8.288;2023-07-31T08:14:51;4.97;;;3.47;;
9160;SDS011;4615;51.340;8.288;2023-07-31T08:17:18;5.40;;;3.80;;
9160;SDS011;4615;51.340;8.288;2023-07-31T08:19:45;5.05;;;3.80;;
9160;SDS011;4615;51.340;8.288;2023-07-31T08:22:11;5.18;;;3.83;;
9160;SDS011;4615;51.340;8.288;2023-07-31T08:24:38;6.88;;;3.63;;
9160;SDS011;4615;51.340;8.288;2023-07-31T08:27:05;5.15;;;3.40;;
9160;SDS011;4615;51.340;8.288;2023-07-31T08:29:32;4.72;;;3.67;;
9160;SDS011;4615;51.340;8.288;2023-07-31T08:31:58;4.18;;;3.78;;
9160;SDS011;4615;51.340;8.288;2023-07-31T08:34:26;4.93;;;3.50;;
9160;SDS011;4615;51.340;8.288;2023-07-31T08:36:52;6.07;;;3.83;;
9160;SDS011;4615;51.340;8.288;2023-07-31T08:39:19;4.95;;;3.65;;
9160;SDS011;4615;51.340;8.288;2023-07-31T08:41:45;4.85;;;3.75;;
9160;SDS011;4615;51.340;8.288;2023-07-31T08:44:11;6.05;;;3.72;;
9160;SDS011;4615;51.340;8.288;2023-07-31T08:46:38;4.63;;;3.77;;
9160;SDS011;4615;51.340;8.288;2023-07-31T08:49:05;6.87;;;3.97;;
9160;SDS011;4615;51.340;8.288;2023-07-31T08:51:33;6.00;;;4.03;;
9160;SDS011;4615;51.340;8.288;2023-07-31T08:54:00;5.40;;;3.72;;
9160;SDS011;4615;51.340;8.288;2023-07-31T08:56:29;5.03;;;3.95;;
9160;SDS011;4615;51.340;8.288;2023-07-31T08:58:55;4.90;;;3.80;;
9160;SDS011;4615;51.340;8.288;2023-07-31T09:01:23;6.68;;;4.10;;
9160;SDS011;4615;51.340;8.288;2023-07-31T09:03:50;4.95;;;3.63;;
9160;SDS011;4615;51.340;8.288;2023-07-31T09:06:17;4.60;;;3.90;;
9160;SDS011;4615;51.340;8.288;2023-07-31T09:08:45;4.40;;;3.80;;
9160;SDS011;4615;51.340;8.288;2023-07-31T09:11:12;4.50;;;3.90;;
9160;SDS011;4615;51.340;8.288;2023-07-31T09:13:39;6.00;;;4.15;;
9160;SDS011;4615;51.340;8.288;2023-07-31T09:16:07;5.43;;;3.92;;
9160;SDS011;4615;51.340;8.288;2023-07-31T09:18:35;5.05;;;4.03;;
9160;SDS011;4615;51.340;8.288;2023-07-31T09:21:18;4.27;;;3.77;;
9160;SDS011;4615;51.340;8.288;2023-07-31T09:23:46;5.18;;;3.70;;
9160;SDS011;4615;51.340;8.288;2023-07-31T09:26:16;5.72;;;3.95;;
9160;SDS011;4615;51.340;8.288;2023-07-31T09:28:54;5.18;;;4.13;;
9160;SDS011;4615;51.340;8.288;2023-07-31T09:31:31;5.72;;;4.05;;
9160;SDS011;4615;51.340;8.288;2023-07-31T09:33:57;6.22;;;3.90;;
9160;SDS011;4615;51.340;8.288;2023-07-31T09:36:25;5.10;;;3.70;;
9160;SDS011;4615;51.340;8.288;2023-07-31T09:38:56;5.07;;;3.63;;
9160;SDS011;4615;51.340;8.288;2023-07-31T09:41:27;4.65;;;3.60;;
9160;SDS011;4615;51.340;8.288;2023-07-31T09:43:53;4.45;;;3.40;;
9160;SDS011;4615;51.340;8.288;2023-07-31T09:46:20;4.78;;;3.55;;
9160;SDS011;4615;51.340;8.288;2023-07-31T09:48:46;4.68;;;3.55;;
9160;SDS011;4615;51.340;8.288;2023-07-31T09:51:13;4.25;;;3.40;;
9160;SDS011;4615;51.340;8.288;2023-07-31T09:53:39;3.83;;;3.05;;
9160;SDS011;4615;51.340;8.288;2023-07-31T09:56:07;5.53;;;3.92;;
9160;SDS011;4615;51.340;8.288;2023-07-31T09:58:34;3.42;;;3.13;;
9160;SDS011;4615;51.340;8.288;2023-07-31T10:01:00;3.28;;;2.75;;
9160;SDS011;4615;51.340;8.288;2023-07-31T10:03:28;3.83;;;2.90;;
9160;SDS011;4615;51.340;8.288;2023-07-31T10:05:55;4.28;;;3.13;;
9160;SDS011;4615;51.340;8.288;2023-07-31T10:08:23;4.67;;;2.70;;
9160;SDS011;4615;51.340;8.288;2023-07-31T10:10:54;3.25;;;2.70;;
9160;SDS011;4615;51.340;8.288;2023-07-31T10:13:22;2.70;;;2.40;;
9160;SDS011;4615;51.340;8.288;2023-07-31T10:15:48;2.58;;;2.38;;
9160;SDS011;4615;51.340;8.288;2023-07-31T10:18:15;3.05;;;2.30;;
9160;SDS011;4615;51.340;8.288;2023-07-31T10:20:43;3.60;;;2.50;;
9160;SDS011;4615;51.340;8.288;2023-07-31T10:23:10;4.53;;;2.38;;
9160;SDS011;4615;51.340;8.288;2023-07-31T10:25:37;3.20;;;1.98;;
9160;SDS011;4615;51.340;8.288;2023-07-31T10:28:03;2.47;;;2.10;;
9160;SDS011;4615;51.340;8.288;2023-07-31T10:30:32;2.85;;;2.30;;
9160;SDS011;4615;51.340;8.288;2023-07-31T10:32:59;2.53;;;2.20;;
9160;SDS011;4615;51.340;8.288;2023-07-31T10:35:27;2.45;;;2.20;;
9160;SDS011;4615;51.340;8.288;2023-07-31T10:37:53;2.30;;;2.10;;
9160;SDS011;4615;51.340;8.288;2023-07-31T10:40:23;2.10;;;1.90;;
9160;SDS011;4615;51.340;8.288;2023-07-31T10:42:50;2.80;;;2.25;;
9160;SDS011;4615;51.340;8.288;2023-07-31T10:45:23;2.33;;;2.10;;
9160;SDS011;4615;51.340;8.288;2023-07-31T10:47:57;2.90;;;2.13;;
9160;SDS011;4615;51.340;8.288;2023-07-31T10:50:24;2.92;;;2.20;;
9160;SDS011;4615;51.340;8.288;2023-07-31T10:52:51;2.35;;;2.15;;
9160;SDS011;4615;51.340;8.288;2023-07-31T10:55:28;4.88;;;2.30;;
9160;SDS011;4615;51.340;8.288;2023-07-31T10:57:55;2.55;;;2.10;;
9160;SDS011;4615;51.340;8.288;2023-07-31T11:00:23;2.63;;;2.13;;
9160;SDS011;4615;51.340;8.288;2023-07-31T11:02:58;3.20;;;2.28;;
9160;SDS011;4615;51.340;8.288;2023-07-31T11:08:12;2.77;;;2.20;;
9160;SDS011;4615;51.340;8.288;2023-07-31T11:10:39;2.67;;;2.15;;
9160;SDS011;4615;51.340;8.288;2023-07-31T11:13:05;2.28;;;2.08;;
9160;SDS011;4615;51.340;8.288;2023-07-31T11:15:32;2.83;;;2.08;;
9160;SDS011;4615;51.340;8.288;2023-07-31T11:18:01;2.53;;;2.08;;
9160;SDS011;4615;51.340;8.288;2023-07-31T11:20:29;2.78;;;1.90;;
9160;SDS011;4615;51.340;8.288;2023-07-31T11:22:57;2.60;;;2.10;;
9160;SDS011;4615;51.340;8.288;2023-07-31T11:25:24;2.30;;;2.10;;
9160;SDS011;4615;51.340;8.288;2023-07-31T11:27:50;2.30;;;2.00;;
9160;SDS011;4615;51.340;8.288;2023-07-31T11:30:18;2.00;;;1.80;;
9160;SDS011;4615;51.340;8.288;2023-07-31T11:32:45;2.55;;;2.05;;
9160;SDS011;4615;51.340;8.288;2023-07-31T11:35:13;2.28;;;1.90;;
9160;SDS011;4615;51.340;8.288;2023-07-31T11:37:39;1.60;;;1.50;;
9160;SDS011;4615;51.340;8.288;2023-07-31T11:40:07;2.20;;;1.90;;
9160;SDS011;4615;51.340;8.288;2023-07-31T11:42:34;2.00;;;1.80;;
9160;SDS011;4615;51.340;8.288;2023-07-31T11:45:03;1.88;;;1.77;;
9160;SDS011;4615;51.340;8.288;2023-07-31T11:47:30;2.03;;;1.77;;
9160;SDS011;4615;51.340;8.288;2023-07-31T11:49:59;2.30;;;1.90;;
9160;SDS011;4615;51.340;8.288;2023-07-31T11:52:27;2.67;;;2.10;;
9160;SDS011;4615;51.340;8.288;2023-07-31T11:54:53;2.50;;;2.30;;
9160;SDS011;4615;51.340;8.288;2023-07-31T11:57:20;2.40;;;2.10;;
9160;SDS011;4615;51.340;8.288;2023-07-31T11:59:47;2.95;;;2.40;;
9160;SDS011;4615;51.340;8.288;2023-07-31T12:02:14;2.80;;;2.50;;
9160;SDS011;4615;51.340;8.288;2023-07-31T12:04:40;3.25;;;2.60;;
9160;SDS011;4615;51.340;8.288;2023-07-31T12:07:06;3.28;;;2.70;;
9160;SDS011;4615;51.340;8.288;2023-07-31T12:09:34;4.07;;;2.80;;
9160;SDS011;4615;51.340;8.288;2023-07-31T12:12:01;3.40;;;2.80;;
9160;SDS011;4615;51.340;8.288;2023-07-31T12:14:28;3.63;;;2.80;;
9160;SDS011;4615;51.340;8.288;2023-07-31T12:16:55;3.70;;;2.88;;
9160;SDS011;4615;51.340;8.288;2023-07-31T12:19:22;3.10;;;2.70;;
9160;SDS011;4615;51.340;8.288;2023-07-31T12:21:48;3.42;;;2.63;;
9160;SDS011;4615;51.340;8.288;2023-07-31T12:24:17;3.45;;;2.90;;
9160;SDS011;4615;51.340;8.288;2023-07-31T12:26:46;4.22;;;2.90;;
9160;SDS011;4615;51.340;8.288;2023-07-31T12:29:12;3.42;;;3.13;;
9160;SDS011;4615;51.340;8.288;2023-07-31T12:31:40;4.20;;;3.20;;
9160;SDS011;4615;51.340;8.288;2023-07-31T12:34:14;4.82;;;3.25;;
9160;SDS011;4615;51.340;8.288;2023-07-31T12:36:40;4.25;;;3.05;;
9160;SDS011;4615;51.340;8.288;2023-07-31T12:39:08;3.67;;;2.97;;
9160;SDS011;4615;51.340;8.288;2023-07-31T12:41:35;4.18;;;3.10;;
9160;SDS011;4615;51.340;8.288;2023-07-31T12:44:02;4.17;;;3.00;;
9160;SDS011;4615;51.340;8.288;2023-07-31T12:46:29;3.83;;;2.80;;
9160;SDS011;4615;51.340;8.288;2023-07-31T12:48:55;3.50;;;2.83;;
9160;SDS011;4615;51.340;8.288;2023-07-31T12:51:22;3.58;;;2.97;;
9160;SDS011;4615;51.340;8.288;2023-07-31T12:53:48;3.58;;;2.70;;
9160;SDS011;4615;51.340;8.288;2023-07-31T12:56:14;2.95;;;2.50;;
9160;SDS011;4615;51.340;8.288;2023-07-31T12:58:41;3.17;;;2.50;;
9160;SDS011;4615;51.340;8.288;2023-07-31T13:01:08;3.00;;;2.70;;
9160;SDS011;4615;51.340;8.288;2023-07-31T13:03:35;4.13;;;2.77;;
9160;SDS011;4615;51.340;8.288;2023-07-31T13:06:01;3.40;;;2.70;;
9160;SDS011;4615;51.340;8.288;2023-07-31T13:08:27;3.47;;;2.78;;
9160;SDS011;4615;51.340;8.288;2023-07-31T13:10:54;3.85;;;2.70;;
9160;SDS011;4615;51.340;8.288;2023-07-31T13:13:20;3.60;;;2.80;;
9160;SDS011;4615;51.340;8.288;2023-07-31T13:15:47;4.13;;;2.50;;
9160;SDS011;4615;51.340;8.288;2023-07-31T13:18:15;3.38;;;2.58;;
9160;SDS011;4615;51.340;8.288;2023-07-31T13:20:41;2.95;;;2.63;;
9160;SDS011;4615;51.340;8.288;2023-07-31T13:23:07;2.67;;;2.47;;
9160;SDS011;4615;51.340;8.288;2023-07-31T13:25:34;2.60;;;2.40;;
9160;SDS011;4615;51.340;8.288;2023-07-31T13:28:00;2.92;;;2.50;;
9160;SDS011;4615;51.340;8.288;2023-07-31T13:30:26;2.50;;;2.30;;
9160;SDS011;4615;51.340;8.288;2023-07-31T13:32:53;2.83;;;2.50;;
9160;SDS011;4615;51.340;8.288;2023-07-31T13:35:23;3.22;;;2.33;;
9160;SDS011;4615;51.340;8.288;2023-07-31T13:37:50;3.10;;;2.53;;
9160;SDS011;4615;51.340;8.288;2023-07-31T13:40:16;3.85;;;2.70;;
9160;SDS011;4615;51.340;8.288;2023-07-31T13:42:43;2.67;;;2.47;;
9160;SDS011;4615;51.340;8.288;2023-07-31T13:45:09;3.13;;;2.78;;
9160;SDS011;4615;51.340;8.288;2023-07-31T13:47:35;3.72;;;2.60;;
9160;SDS011;4615;51.340;8.288;2023-07-31T13:50:02;3.70;;;2.60;;
9160;SDS011;4615;51.340;8.288;2023-07-31T13:52:30;2.78;;;2.58;;
9160;SDS011;4615;51.340;8.288;2023-07-31T13:54:56;3.47;;;2.78;;
9160;SDS011;4615;51.340;8.288;2023-07-31T13:57:22;3.20;;;2.90;;
9160;SDS011;4615;51.340;8.288;2023-07-31T13:59:49;3.40;;;3.05;;
9160;SDS011;4615;51.340;8.288;2023-07-31T14:02:15;3.75;;;2.97;;
9160;SDS011;4615;51.340;8.288;2023-07-31T14:04:42;3.30;;;3.00;;
9160;SDS011;4615;51.340;8.288;2023-07-31T14:07:08;3.40;;;3.10;;
9160;SDS011;4615;51.340;8.288;2023-07-31T14:09:36;3.28;;;2.97;;
9160;SDS011;4615;51.340;8.288;2023-07-31T14:12:03;3.15;;;2.95;;
9160;SDS011;4615;51.340;8.288;2023-07-31T14:14:29;3.40;;;3.10;;
9160;SDS011;4615;51.340;8.288;2023-07-31T14:16:55;3.50;;;3.00;;
9160;SDS011;4615;51.340;8.288;2023-07-31T14:19:22;3.40;;;3.10;;
9160;SDS011;4615;51.340;8.288;2023-07-31T14:21:50;4.20;;;3.20;;
9160;SDS011;4615;51.340;8.288;2023-07-31T14:24:16;3.28;;;2.88;;
9160;SDS011;4615;51.340;8.288;2023-07-31T14:26:44;3.20;;;2.90;;
9160;SDS011;4615;51.340;8.288;2023-07-31T14:29:10;2.90;;;2.70;;
9160;SDS011;4615;51.340;8.288;2023-07-31T14:31:36;3.35;;;2.67;;
9160;SDS011;4615;51.340;8.288;2023-07-31T14:34:03;2.88;;;2.58;;
9160;SDS011;4615;51.340;8.288;2023-07-31T14:36:29;2.53;;;2.33;;
9160;SDS011;4615;51.340;8.288;2023-07-31T14:38:55;2.22;;;2.10;;
9160;SDS011;4615;51.340;8.288;2023-07-31T14:41:22;2.40;;;2.20;;
9160;SDS011;4615;51.340;8.288;2023-07-31T14:43:49;2.40;;;2.20;;
9160;SDS011;4615;51.340;8.288;2023-07-31T14:46:16;2.67;;;2.47;;
9160;SDS011;4615;51.340;8.288;2023-07-31T14:48:42;2.60;;;2.35;;
9160;SDS011;4615;51.340;8.288;2023-07-31T14:51:08;2.35;;;2.15;;
9160;SDS011;4615;51.340;8.288;2023-07-31T14:53:35;2.50;;;2.30;;
9160;SDS011;4615;51.340;8.288;2023-07-31T14:56:01;3.25;;;2.80;;
9160;SDS011;4615;51.340;8.288;2023-07-31T14:58:27;3.50;;;3.17;;
9160;SDS011;4615;51.340;8.288;2023-07-31T15:00:55;3.10;;;2.90;;
9160;SDS011;4615;51.340;8.288;2023-07-31T15:03:24;3.40;;;3.10;;
9160;SDS011;4615;51.340;8.288;2023-07-31T15:05:51;3.95;;;3.30;;
9160;SDS011;4615;51.340;8.288;2023-07-31T15:08:17;3.30;;;3.00;;
9160;SDS011;4615;51.340;8.288;2023-07-31T15:10:44;3.00;;;2.70;;
9160;SDS011;4615;51.340;8.288;2023-07-31T15:13:10;3.37;;;3.07;;
9160;SDS011;4615;51.340;8.288;2023-07-31T15:15:37;3.17;;;2.90;;